sensor_id;sensor_type;location;lat;lon;timestamp;P1;durP1;ratioP1;P2;durP2;ratioP2
16514;SDS011;8370;52.556;7.970;2022-12-10T00:01:46;34.83;;;14.67;;
16514;SDS011;8370;52.556;7.970;2022-12-10T00:04:14;31.70;;;12.90;;
16514;SDS011;8370;52.556;7.970;2022-12-10T00:06:40;31.47;;;14.40;;
16514;SDS011;8370;52.556;7.970;2022-12-10T00:09:07;32.40;;;14.40;;
16514;SDS011;8370;52.556;7.970;2022-12-10T00:11:39;31.40;;;14.83;;
16514;SDS011;8370;52.556;7.970;2022-12-10T00:14:05;31.13;;;14.10;;
16514;SDS011;8370;52.556;7.970;2022-12-10T00:16:34;31.80;;;14.60;;
16514;SDS011;8370;52.556;7.970;2022-12-10T00:19:00;33.43;;;15.23;;
16514;SDS011;8370;52.556;7.970;2022-12-10T00:21:27;34.03;;;14.43;;
16514;SDS011;8370;52.556;7.970;2022-12-10T00:23:54;34.40;;;14.43;;
16514;SDS011;8370;52.556;7.970;2022-12-10T00:26:22;34.50;;;14.60;;
16514;SDS011;8370;52.556;7.970;2022-12-10T00:28:50;30.73;;;13.87;;
16514;SDS011;8370;52.556;7.970;2022-12-10T00:31:20;31.10;;;14.73;;
16514;SDS011;8370;52.556;7.970;2022-12-10T00:33:48;29.57;;;12.40;;
16514;SDS011;8370;52.556;7.970;2022-12-10T00:36:15;28.20;;;12.77;;
16514;SDS011;8370;52.556;7.970;2022-12-10T00:38:43;30.67;;;13.57;;
16514;SDS011;8370;52.556;7.970;2022-12-10T00:41:10;27.23;;;13.10;;
16514;SDS011;8370;52.556;7.970;2022-12-10T00:43:37;28.10;;;12.63;;
16514;SDS011;8370;52.556;7.970;2022-12-10T00:46:02;31.13;;;14.27;;
16514;SDS011;8370;52.556;7.970;2022-12-10T00:48:28;30.97;;;13.00;;
16514;SDS011;8370;52.556;7.970;2022-12-10T00:50:55;34.00;;;15.43;;
16514;SDS011;8370;52.556;7.970;2022-12-10T00:53:31;32.03;;;15.30;;
16514;SDS011;8370;52.556;7.970;2022-12-10T00:55:58;38.77;;;15.97;;
16514;SDS011;8370;52.556;7.970;2022-12-10T00:58:26;38.47;;;16.23;;
16514;SDS011;8370;52.556;7.970;2022-12-10T01:00:53;32.40;;;14.67;;
16514;SDS011;8370;52.556;7.970;2022-12-10T01:03:19;33.00;;;13.43;;
16514;SDS011;8370;52.556;7.970;2022-12-10T01:05:45;30.27;;;13.43;;
16514;SDS011;8370;52.556;7.970;2022-12-10T01:08:11;34.57;;;15.53;;
16514;SDS011;8370;52.556;7.970;2022-12-10T01:10:36;34.27;;;13.73;;
16514;SDS011;8370;52.556;7.970;2022-12-10T01:13:02;28.47;;;13.67;;
16514;SDS011;8370;52.556;7.970;2022-12-10T01:15:28;26.00;;;12.80;;
16514;SDS011;8370;52.556;7.970;2022-12-10T01:17:54;32.43;;;14.60;;
16514;SDS011;8370;52.556;7.970;2022-12-10T01:20:19;31.77;;;12.77;;
16514;SDS011;8370;52.556;7.970;2022-12-10T01:22:45;29.30;;;12.67;;
16514;SDS011;8370;52.556;7.970;2022-12-10T01:25:10;26.90;;;13.23;;
16514;SDS011;8370;52.556;7.970;2022-12-10T01:27:36;30.60;;;13.33;;
16514;SDS011;8370;52.556;7.970;2022-12-10T01:30:02;28.67;;;13.53;;
16514;SDS011;8370;52.556;7.970;2022-12-10T01:32:27;31.13;;;14.43;;
16514;SDS011;8370;52.556;7.970;2022-12-10T01:34:53;30.60;;;14.60;;
16514;SDS011;8370;52.556;7.970;2022-12-10T01:37:18;33.40;;;14.73;;
16514;SDS011;8370;52.556;7.970;2022-12-10T01:39:44;31.57;;;14.40;;
16514;SDS011;8370;52.556;7.970;2022-12-10T01:42:11;34.27;;;12.90;;
16514;SDS011;8370;52.556;7.970;2022-12-10T01:47:07;30.87;;;15.00;;
16514;SDS011;8370;52.556;7.970;2022-12-10T01:49:37;33.77;;;15.50;;
16514;SDS011;8370;52.556;7.970;2022-12-10T01:52:06;32.77;;;13.73;;
16514;SDS011;8370;52.556;7.970;2022-12-10T01:54:35;31.33;;;13.67;;
16514;SDS011;8370;52.556;7.970;2022-12-10T01:59:34;29.30;;;13.53;;
16514;SDS011;8370;52.556;7.970;2022-12-10T02:02:04;32.83;;;13.93;;
16514;SDS011;8370;52.556;7.970;2022-12-10T02:07:24;34.57;;;15.77;;
16514;SDS011;8370;52.556;7.970;2022-12-10T02:09:58;36.30;;;15.47;;
16514;SDS011;8370;52.556;7.970;2022-12-10T02:12:35;30.30;;;13.53;;
16514;SDS011;8370;52.556;7.970;2022-12-10T02:22:52;34.33;;;14.30;;
16514;SDS011;8370;52.556;7.970;2022-12-10T02:25:23;33.43;;;14.93;;
16514;SDS011;8370;52.556;7.970;2022-12-10T02:27:59;29.70;;;14.07;;
16514;SDS011;8370;52.556;7.970;2022-12-10T02:30:33;30.33;;;14.73;;
16514;SDS011;8370;52.556;7.970;2022-12-10T02:33:01;30.37;;;14.37;;
16514;SDS011;8370;52.556;7.970;2022-12-10T02:35:30;37.97;;;15.97;;
16514;SDS011;8370;52.556;7.970;2022-12-10T02:40:37;36.03;;;15.30;;
16514;SDS011;8370;52.556;7.970;2022-12-10T02:43:06;35.77;;;13.97;;
16514;SDS011;8370;52.556;7.970;2022-12-10T02:45:32;31.07;;;15.47;;
16514;SDS011;8370;52.556;7.970;2022-12-10T02:47:59;35.43;;;15.37;;
16514;SDS011;8370;52.556;7.970;2022-12-10T02:50:27;37.47;;;16.93;;
16514;SDS011;8370;52.556;7.970;2022-12-10T02:52:53;31.80;;;16.00;;
16514;SDS011;8370;52.556;7.970;2022-12-10T02:55:18;41.77;;;17.87;;
16514;SDS011;8370;52.556;7.970;2022-12-10T03:00:24;37.40;;;17.13;;
16514;SDS011;8370;52.556;7.970;2022-12-10T03:08:34;35.90;;;15.53;;
16514;SDS011;8370;52.556;7.970;2022-12-10T03:11:24;42.90;;;18.10;;
16514;SDS011;8370;52.556;7.970;2022-12-10T03:16:35;37.07;;;17.03;;
16514;SDS011;8370;52.556;7.970;2022-12-10T03:19:05;37.10;;;16.50;;
16514;SDS011;8370;52.556;7.970;2022-12-10T03:21:34;34.30;;;15.93;;
16514;SDS011;8370;52.556;7.970;2022-12-10T03:24:02;36.80;;;15.10;;
16514;SDS011;8370;52.556;7.970;2022-12-10T03:26:28;37.63;;;16.13;;
16514;SDS011;8370;52.556;7.970;2022-12-10T03:28:56;37.70;;;15.97;;
16514;SDS011;8370;52.556;7.970;2022-12-10T03:31:28;41.20;;;16.77;;
16514;SDS011;8370;52.556;7.970;2022-12-10T03:33:55;38.47;;;16.53;;
16514;SDS011;8370;52.556;7.970;2022-12-10T03:36:20;41.47;;;16.30;;
16514;SDS011;8370;52.556;7.970;2022-12-10T03:38:47;39.10;;;17.77;;
16514;SDS011;8370;52.556;7.970;2022-12-10T03:41:12;37.77;;;16.57;;
16514;SDS011;8370;52.556;7.970;2022-12-10T03:43:51;40.73;;;18.53;;
16514;SDS011;8370;52.556;7.970;2022-12-10T03:46:18;37.03;;;16.33;;
16514;SDS011;8370;52.556;7.970;2022-12-10T03:48:44;33.80;;;14.67;;
16514;SDS011;8370;52.556;7.970;2022-12-10T03:51:09;35.13;;;16.20;;
16514;SDS011;8370;52.556;7.970;2022-12-10T03:53:35;34.90;;;15.63;;
16514;SDS011;8370;52.556;7.970;2022-12-10T03:56:00;33.63;;;15.70;;
16514;SDS011;8370;52.556;7.970;2022-12-10T03:58:26;35.13;;;15.87;;
16514;SDS011;8370;52.556;7.970;2022-12-10T04:00:51;36.00;;;16.13;;
16514;SDS011;8370;52.556;7.970;2022-12-10T04:03:17;33.60;;;14.90;;
16514;SDS011;8370;52.556;7.970;2022-12-10T04:05:42;40.37;;;16.90;;
16514;SDS011;8370;52.556;7.970;2022-12-10T04:08:08;37.43;;;15.93;;
16514;SDS011;8370;52.556;7.970;2022-12-10T04:10:37;38.83;;;16.43;;
16514;SDS011;8370;52.556;7.970;2022-12-10T04:13:03;41.47;;;18.10;;
16514;SDS011;8370;52.556;7.970;2022-12-10T04:15:47;35.80;;;15.60;;
16514;SDS011;8370;52.556;7.970;2022-12-10T04:18:31;38.47;;;16.93;;
16514;SDS011;8370;52.556;7.970;2022-12-10T04:20:57;40.23;;;16.83;;
16514;SDS011;8370;52.556;7.970;2022-12-10T04:23:41;38.00;;;16.60;;
16514;SDS011;8370;52.556;7.970;2022-12-10T04:26:24;37.87;;;16.20;;
16514;SDS011;8370;52.556;7.970;2022-12-10T04:29:09;36.37;;;15.73;;
16514;SDS011;8370;52.556;7.970;2022-12-10T04:31:34;36.40;;;15.10;;
16514;SDS011;8370;52.556;7.970;2022-12-10T04:34:00;40.93;;;15.80;;
16514;SDS011;8370;52.556;7.970;2022-12-10T04:36:26;41.17;;;16.40;;
16514;SDS011;8370;52.556;7.970;2022-12-10T04:38:51;35.70;;;15.37;;
16514;SDS011;8370;52.556;7.970;2022-12-10T04:41:17;34.03;;;16.00;;
16514;SDS011;8370;52.556;7.970;2022-12-10T04:43:42;39.40;;;16.07;;
16514;SDS011;8370;52.556;7.970;2022-12-10T04:46:08;35.90;;;16.00;;
16514;SDS011;8370;52.556;7.970;2022-12-10T04:48:35;34.47;;;15.53;;
16514;SDS011;8370;52.556;7.970;2022-12-10T04:51:00;30.13;;;15.03;;
16514;SDS011;8370;52.556;7.970;2022-12-10T04:53:26;37.83;;;14.97;;
16514;SDS011;8370;52.556;7.970;2022-12-10T04:55:51;35.43;;;14.70;;
16514;SDS011;8370;52.556;7.970;2022-12-10T04:58:17;37.53;;;15.20;;
16514;SDS011;8370;52.556;7.970;2022-12-10T05:00:42;35.73;;;15.07;;
16514;SDS011;8370;52.556;7.970;2022-12-10T05:03:08;31.53;;;14.73;;
16514;SDS011;8370;52.556;7.970;2022-12-10T05:05:34;36.70;;;14.53;;
16514;SDS011;8370;52.556;7.970;2022-12-10T05:08:00;33.97;;;14.67;;
16514;SDS011;8370;52.556;7.970;2022-12-10T05:10:25;33.90;;;15.00;;
16514;SDS011;8370;52.556;7.970;2022-12-10T05:12:51;40.47;;;15.97;;
16514;SDS011;8370;52.556;7.970;2022-12-10T05:15:17;33.90;;;14.13;;
16514;SDS011;8370;52.556;7.970;2022-12-10T05:17:42;33.97;;;14.30;;
16514;SDS011;8370;52.556;7.970;2022-12-10T05:20:08;35.53;;;14.83;;
16514;SDS011;8370;52.556;7.970;2022-12-10T05:22:34;31.87;;;14.93;;
16514;SDS011;8370;52.556;7.970;2022-12-10T05:25:25;33.53;;;14.20;;
16514;SDS011;8370;52.556;7.970;2022-12-10T05:27:51;35.20;;;15.03;;
16514;SDS011;8370;52.556;7.970;2022-12-10T05:30:16;32.17;;;13.47;;
16514;SDS011;8370;52.556;7.970;2022-12-10T05:32:42;33.90;;;14.33;;
16514;SDS011;8370;52.556;7.970;2022-12-10T05:35:08;34.33;;;14.47;;
16514;SDS011;8370;52.556;7.970;2022-12-10T05:37:33;32.83;;;16.07;;
16514;SDS011;8370;52.556;7.970;2022-12-10T05:39:59;31.60;;;14.27;;
16514;SDS011;8370;52.556;7.970;2022-12-10T05:42:24;34.50;;;15.50;;
16514;SDS011;8370;52.556;7.970;2022-12-10T05:44:50;32.90;;;14.20;;
16514;SDS011;8370;52.556;7.970;2022-12-10T05:47:15;34.63;;;13.83;;
16514;SDS011;8370;52.556;7.970;2022-12-10T05:49:41;34.97;;;15.03;;
16514;SDS011;8370;52.556;7.970;2022-12-10T05:52:06;31.77;;;14.33;;
16514;SDS011;8370;52.556;7.970;2022-12-10T05:54:33;34.37;;;14.27;;
16514;SDS011;8370;52.556;7.970;2022-12-10T05:56:59;30.13;;;13.07;;
16514;SDS011;8370;52.556;7.970;2022-12-10T05:59:25;29.87;;;12.97;;
16514;SDS011;8370;52.556;7.970;2022-12-10T06:01:50;33.87;;;15.77;;
16514;SDS011;8370;52.556;7.970;2022-12-10T06:04:16;34.57;;;14.17;;
16514;SDS011;8370;52.556;7.970;2022-12-10T06:06:41;30.37;;;14.03;;
16514;SDS011;8370;52.556;7.970;2022-12-10T06:09:07;29.80;;;13.80;;
16514;SDS011;8370;52.556;7.970;2022-12-10T06:11:37;33.43;;;13.43;;
16514;SDS011;8370;52.556;7.970;2022-12-10T06:14:02;28.37;;;12.63;;
16514;SDS011;8370;52.556;7.970;2022-12-10T06:16:28;29.77;;;13.63;;
16514;SDS011;8370;52.556;7.970;2022-12-10T06:18:54;27.10;;;13.60;;
16514;SDS011;8370;52.556;7.970;2022-12-10T06:21:21;28.47;;;13.37;;
16514;SDS011;8370;52.556;7.970;2022-12-10T06:23:47;27.23;;;12.57;;
16514;SDS011;8370;52.556;7.970;2022-12-10T06:26:15;27.73;;;11.67;;
16514;SDS011;8370;52.556;7.970;2022-12-10T06:28:45;27.57;;;13.17;;
16514;SDS011;8370;52.556;7.970;2022-12-10T06:31:12;27.77;;;12.67;;
16514;SDS011;8370;52.556;7.970;2022-12-10T06:33:38;32.03;;;12.23;;
16514;SDS011;8370;52.556;7.970;2022-12-10T06:36:04;25.57;;;12.33;;
16514;SDS011;8370;52.556;7.970;2022-12-10T06:38:31;29.70;;;13.07;;
16514;SDS011;8370;52.556;7.970;2022-12-10T06:40:58;26.30;;;11.30;;
16514;SDS011;8370;52.556;7.970;2022-12-10T06:43:23;36.20;;;13.17;;
16514;SDS011;8370;52.556;7.970;2022-12-10T06:45:49;27.03;;;11.60;;
16514;SDS011;8370;52.556;7.970;2022-12-10T06:48:14;31.27;;;12.70;;
16514;SDS011;8370;52.556;7.970;2022-12-10T06:50:40;27.53;;;12.23;;
16514;SDS011;8370;52.556;7.970;2022-12-10T06:53:06;33.07;;;12.43;;
16514;SDS011;8370;52.556;7.970;2022-12-10T06:55:31;32.40;;;13.37;;
16514;SDS011;8370;52.556;7.970;2022-12-10T06:57:57;26.17;;;12.20;;
16514;SDS011;8370;52.556;7.970;2022-12-10T07:00:22;27.43;;;11.50;;
16514;SDS011;8370;52.556;7.970;2022-12-10T07:02:48;30.27;;;11.93;;
16514;SDS011;8370;52.556;7.970;2022-12-10T07:05:14;28.60;;;11.50;;
16514;SDS011;8370;52.556;7.970;2022-12-10T07:07:40;26.87;;;12.37;;
16514;SDS011;8370;52.556;7.970;2022-12-10T07:10:06;29.77;;;12.07;;
16514;SDS011;8370;52.556;7.970;2022-12-10T07:12:32;22.47;;;11.17;;
16514;SDS011;8370;52.556;7.970;2022-12-10T07:14:58;29.50;;;13.63;;
16514;SDS011;8370;52.556;7.970;2022-12-10T07:17:23;29.00;;;12.00;;
16514;SDS011;8370;52.556;7.970;2022-12-10T07:19:49;29.37;;;12.40;;
16514;SDS011;8370;52.556;7.970;2022-12-10T07:22:14;27.20;;;12.83;;
16514;SDS011;8370;52.556;7.970;2022-12-10T07:24:40;28.57;;;12.97;;
16514;SDS011;8370;52.556;7.970;2022-12-10T07:27:06;29.17;;;12.23;;
16514;SDS011;8370;52.556;7.970;2022-12-10T07:29:32;29.77;;;12.07;;
16514;SDS011;8370;52.556;7.970;2022-12-10T07:31:58;30.47;;;13.10;;
16514;SDS011;8370;52.556;7.970;2022-12-10T07:34:24;27.90;;;12.50;;
16514;SDS011;8370;52.556;7.970;2022-12-10T07:36:49;30.60;;;12.33;;
16514;SDS011;8370;52.556;7.970;2022-12-10T07:39:15;29.40;;;13.20;;
16514;SDS011;8370;52.556;7.970;2022-12-10T07:41:46;30.97;;;13.57;;
16514;SDS011;8370;52.556;7.970;2022-12-10T07:44:15;30.80;;;13.80;;
16514;SDS011;8370;52.556;7.970;2022-12-10T07:46:41;29.40;;;13.20;;
16514;SDS011;8370;52.556;7.970;2022-12-10T07:49:07;31.70;;;13.00;;
16514;SDS011;8370;52.556;7.970;2022-12-10T07:51:33;34.83;;;13.60;;
16514;SDS011;8370;52.556;7.970;2022-12-10T07:53:58;31.53;;;12.97;;
16514;SDS011;8370;52.556;7.970;2022-12-10T07:56:24;32.13;;;13.23;;
16514;SDS011;8370;52.556;7.970;2022-12-10T07:58:50;32.60;;;13.37;;
16514;SDS011;8370;52.556;7.970;2022-12-10T08:01:18;25.97;;;12.17;;
16514;SDS011;8370;52.556;7.970;2022-12-10T08:03:47;32.03;;;13.33;;
16514;SDS011;8370;52.556;7.970;2022-12-10T08:06:14;45.43;;;20.27;;
16514;SDS011;8370;52.556;7.970;2022-12-10T08:08:42;51.10;;;21.70;;
16514;SDS011;8370;52.556;7.970;2022-12-10T08:11:08;31.93;;;12.93;;
16514;SDS011;8370;52.556;7.970;2022-12-10T08:13:35;30.13;;;13.33;;
16514;SDS011;8370;52.556;7.970;2022-12-10T08:16:02;35.80;;;14.80;;
16514;SDS011;8370;52.556;7.970;2022-12-10T08:18:32;33.17;;;13.23;;
16514;SDS011;8370;52.556;7.970;2022-12-10T08:21:02;32.77;;;14.73;;
16514;SDS011;8370;52.556;7.970;2022-12-10T08:23:29;32.73;;;13.93;;
16514;SDS011;8370;52.556;7.970;2022-12-10T08:25:55;34.33;;;13.73;;
16514;SDS011;8370;52.556;7.970;2022-12-10T08:28:20;29.50;;;13.37;;
16514;SDS011;8370;52.556;7.970;2022-12-10T08:30:46;26.20;;;14.77;;
16514;SDS011;8370;52.556;7.970;2022-12-10T08:33:13;31.53;;;15.30;;
16514;SDS011;8370;52.556;7.970;2022-12-10T08:35:38;30.57;;;14.47;;
16514;SDS011;8370;52.556;7.970;2022-12-10T08:38:04;31.27;;;14.43;;
16514;SDS011;8370;52.556;7.970;2022-12-10T08:40:29;32.77;;;14.37;;
16514;SDS011;8370;52.556;7.970;2022-12-10T08:42:55;30.33;;;15.10;;
16514;SDS011;8370;52.556;7.970;2022-12-10T08:45:20;28.83;;;13.80;;
16514;SDS011;8370;52.556;7.970;2022-12-10T08:47:46;29.10;;;13.57;;
16514;SDS011;8370;52.556;7.970;2022-12-10T08:50:11;33.33;;;13.83;;
16514;SDS011;8370;52.556;7.970;2022-12-10T08:52:37;31.67;;;14.73;;
16514;SDS011;8370;52.556;7.970;2022-12-10T08:55:02;33.63;;;13.97;;
16514;SDS011;8370;52.556;7.970;2022-12-10T08:57:28;32.33;;;15.57;;
16514;SDS011;8370;52.556;7.970;2022-12-10T08:59:54;28.10;;;13.00;;
16514;SDS011;8370;52.556;7.970;2022-12-10T09:02:19;34.93;;;14.23;;
16514;SDS011;8370;52.556;7.970;2022-12-10T09:04:45;26.43;;;13.53;;
16514;SDS011;8370;52.556;7.970;2022-12-10T09:07:11;31.30;;;13.33;;
16514;SDS011;8370;52.556;7.970;2022-12-10T09:09:37;35.60;;;14.20;;
16514;SDS011;8370;52.556;7.970;2022-12-10T09:12:02;31.80;;;14.73;;
16514;SDS011;8370;52.556;7.970;2022-12-10T09:14:28;32.30;;;14.60;;
16514;SDS011;8370;52.556;7.970;2022-12-10T09:16:54;31.17;;;14.20;;
16514;SDS011;8370;52.556;7.970;2022-12-10T09:19:19;30.40;;;14.57;;
16514;SDS011;8370;52.556;7.970;2022-12-10T09:21:45;33.77;;;14.40;;
16514;SDS011;8370;52.556;7.970;2022-12-10T09:24:12;33.93;;;14.70;;
16514;SDS011;8370;52.556;7.970;2022-12-10T09:26:38;32.93;;;14.97;;
16514;SDS011;8370;52.556;7.970;2022-12-10T09:29:03;29.43;;;13.67;;
16514;SDS011;8370;52.556;7.970;2022-12-10T09:31:29;32.77;;;14.83;;
16514;SDS011;8370;52.556;7.970;2022-12-10T09:33:55;30.40;;;14.53;;
16514;SDS011;8370;52.556;7.970;2022-12-10T09:36:20;32.03;;;14.77;;
16514;SDS011;8370;52.556;7.970;2022-12-10T09:38:47;26.97;;;13.37;;
16514;SDS011;8370;52.556;7.970;2022-12-10T09:44:38;27.30;;;13.57;;
16514;SDS011;8370;52.556;7.970;2022-12-10T09:46:55;31.00;;;14.27;;
16514;SDS011;8370;52.556;7.970;2022-12-10T09:52:14;29.70;;;13.73;;
16514;SDS011;8370;52.556;7.970;2022-12-10T09:54:43;31.33;;;14.33;;
16514;SDS011;8370;52.556;7.970;2022-12-10T09:57:19;28.23;;;13.70;;
16514;SDS011;8370;52.556;7.970;2022-12-10T10:00:44;31.77;;;14.93;;
16514;SDS011;8370;52.556;7.970;2022-12-10T10:03:03;29.67;;;14.17;;
16514;SDS011;8370;52.556;7.970;2022-12-10T10:05:32;33.20;;;16.13;;
16514;SDS011;8370;52.556;7.970;2022-12-10T10:08:01;32.43;;;14.57;;
16514;SDS011;8370;52.556;7.970;2022-12-10T10:10:34;34.57;;;16.17;;
16514;SDS011;8370;52.556;7.970;2022-12-10T10:15:34;33.03;;;14.83;;
16514;SDS011;8370;52.556;7.970;2022-12-10T10:18:11;34.90;;;15.80;;
16514;SDS011;8370;52.556;7.970;2022-12-10T10:20:38;32.53;;;14.73;;
16514;SDS011;8370;52.556;7.970;2022-12-10T10:23:04;28.23;;;14.07;;
16514;SDS011;8370;52.556;7.970;2022-12-10T10:25:31;31.93;;;15.10;;
16514;SDS011;8370;52.556;7.970;2022-12-10T10:27:56;32.70;;;14.47;;
16514;SDS011;8370;52.556;7.970;2022-12-10T10:30:22;36.93;;;16.50;;
16514;SDS011;8370;52.556;7.970;2022-12-10T10:32:53;32.77;;;15.53;;
16514;SDS011;8370;52.556;7.970;2022-12-10T10:35:27;34.40;;;15.50;;
16514;SDS011;8370;52.556;7.970;2022-12-10T10:37:56;34.07;;;15.37;;
16514;SDS011;8370;52.556;7.970;2022-12-10T10:40:30;29.63;;;14.27;;
16514;SDS011;8370;52.556;7.970;2022-12-10T10:42:58;30.70;;;15.67;;
16514;SDS011;8370;52.556;7.970;2022-12-10T10:45:47;30.27;;;14.97;;
16514;SDS011;8370;52.556;7.970;2022-12-10T10:48:35;33.50;;;15.93;;
16514;SDS011;8370;52.556;7.970;2022-12-10T10:59:25;31.47;;;15.80;;
16514;SDS011;8370;52.556;7.970;2022-12-10T11:04:14;32.07;;;15.07;;
16514;SDS011;8370;52.556;7.970;2022-12-10T11:06:41;33.13;;;17.70;;
16514;SDS011;8370;52.556;7.970;2022-12-10T11:09:13;28.87;;;14.23;;
16514;SDS011;8370;52.556;7.970;2022-12-10T11:11:45;30.17;;;15.07;;
16514;SDS011;8370;52.556;7.970;2022-12-10T11:14:33;32.00;;;15.37;;
16514;SDS011;8370;52.556;7.970;2022-12-10T11:17:17;34.70;;;16.27;;
16514;SDS011;8370;52.556;7.970;2022-12-10T11:19:59;34.23;;;15.47;;
16514;SDS011;8370;52.556;7.970;2022-12-10T11:22:29;31.73;;;15.87;;
16514;SDS011;8370;52.556;7.970;2022-12-10T11:24:57;28.37;;;14.57;;
16514;SDS011;8370;52.556;7.970;2022-12-10T11:27:36;37.70;;;16.93;;
16514;SDS011;8370;52.556;7.970;2022-12-10T11:30:18;36.57;;;17.47;;
16514;SDS011;8370;52.556;7.970;2022-12-10T11:38:31;35.00;;;16.77;;
16514;SDS011;8370;52.556;7.970;2022-12-10T11:41:15;34.40;;;16.80;;
16514;SDS011;8370;52.556;7.970;2022-12-10T11:49:03;31.13;;;16.47;;
16514;SDS011;8370;52.556;7.970;2022-12-10T11:51:41;32.00;;;16.27;;
16514;SDS011;8370;52.556;7.970;2022-12-10T11:56:58;31.47;;;14.83;;
16514;SDS011;8370;52.556;7.970;2022-12-10T11:59:28;36.13;;;17.13;;
16514;SDS011;8370;52.556;7.970;2022-12-10T12:02:11;31.60;;;14.40;;
16514;SDS011;8370;52.556;7.970;2022-12-10T12:10:53;30.30;;;16.07;;
16514;SDS011;8370;52.556;7.970;2022-12-10T12:16:09;32.33;;;15.80;;
16514;SDS011;8370;52.556;7.970;2022-12-10T12:18:51;37.40;;;17.20;;
16514;SDS011;8370;52.556;7.970;2022-12-10T12:21:28;33.87;;;15.97;;
16514;SDS011;8370;52.556;7.970;2022-12-10T12:24:01;72.37;;;34.47;;
16514;SDS011;8370;52.556;7.970;2022-12-10T12:26:35;50.80;;;22.93;;
16514;SDS011;8370;52.556;7.970;2022-12-10T12:32:01;76.37;;;36.27;;
16514;SDS011;8370;52.556;7.970;2022-12-10T12:37:09;37.80;;;19.23;;
16514;SDS011;8370;52.556;7.970;2022-12-10T12:42:32;38.53;;;18.47;;
16514;SDS011;8370;52.556;7.970;2022-12-10T12:45:12;34.93;;;16.27;;
16514;SDS011;8370;52.556;7.970;2022-12-10T12:50:43;33.00;;;15.47;;
16514;SDS011;8370;52.556;7.970;2022-12-10T12:53:13;35.77;;;16.37;;
16514;SDS011;8370;52.556;7.970;2022-12-10T12:56:01;36.70;;;16.30;;
16514;SDS011;8370;52.556;7.970;2022-12-10T12:58:51;31.60;;;14.77;;
16514;SDS011;8370;52.556;7.970;2022-12-10T13:01:43;28.13;;;14.17;;
16514;SDS011;8370;52.556;7.970;2022-12-10T13:04:18;34.90;;;15.73;;
16514;SDS011;8370;52.556;7.970;2022-12-10T13:07:08;34.33;;;15.67;;
16514;SDS011;8370;52.556;7.970;2022-12-10T13:12:29;37.20;;;16.97;;
16514;SDS011;8370;52.556;7.970;2022-12-10T13:17:38;33.50;;;16.10;;
16514;SDS011;8370;52.556;7.970;2022-12-10T13:22:56;39.00;;;16.50;;
16514;SDS011;8370;52.556;7.970;2022-12-10T13:28:51;41.53;;;17.30;;
16514;SDS011;8370;52.556;7.970;2022-12-10T13:36:33;35.83;;;16.20;;
16514;SDS011;8370;52.556;7.970;2022-12-10T13:40:12;44.40;;;16.60;;
16514;SDS011;8370;52.556;7.970;2022-12-10T13:42:22;29.80;;;14.70;;
16514;SDS011;8370;52.556;7.970;2022-12-10T13:45:24;41.30;;;17.37;;
16514;SDS011;8370;52.556;7.970;2022-12-10T13:47:52;40.43;;;16.10;;
16514;SDS011;8370;52.556;7.970;2022-12-10T13:55:59;34.53;;;14.80;;
16514;SDS011;8370;52.556;7.970;2022-12-10T13:58:46;38.17;;;16.00;;
16514;SDS011;8370;52.556;7.970;2022-12-10T14:01:51;37.07;;;15.53;;
16514;SDS011;8370;52.556;7.970;2022-12-10T14:07:36;35.77;;;15.90;;
16514;SDS011;8370;52.556;7.970;2022-12-10T14:10:02;36.00;;;16.07;;
16514;SDS011;8370;52.556;7.970;2022-12-10T14:12:33;34.87;;;16.43;;
16514;SDS011;8370;52.556;7.970;2022-12-10T14:15:06;36.40;;;16.50;;
16514;SDS011;8370;52.556;7.970;2022-12-10T14:17:37;33.77;;;16.90;;
16514;SDS011;8370;52.556;7.970;2022-12-10T14:20:07;36.50;;;14.87;;
16514;SDS011;8370;52.556;7.970;2022-12-10T14:22:49;32.97;;;15.70;;
16514;SDS011;8370;52.556;7.970;2022-12-10T14:25:21;33.03;;;14.37;;
16514;SDS011;8370;52.556;7.970;2022-12-10T14:27:49;37.60;;;16.07;;
16514;SDS011;8370;52.556;7.970;2022-12-10T14:32:45;40.70;;;16.80;;
16514;SDS011;8370;52.556;7.970;2022-12-10T14:35:13;37.43;;;16.50;;
16514;SDS011;8370;52.556;7.970;2022-12-10T14:37:42;42.50;;;16.90;;
16514;SDS011;8370;52.556;7.970;2022-12-10T14:40:17;37.63;;;15.80;;
16514;SDS011;8370;52.556;7.970;2022-12-10T14:42:48;37.63;;;17.27;;
16514;SDS011;8370;52.556;7.970;2022-12-10T14:45:15;43.20;;;17.73;;
16514;SDS011;8370;52.556;7.970;2022-12-10T14:47:41;40.10;;;18.07;;
16514;SDS011;8370;52.556;7.970;2022-12-10T14:50:10;43.57;;;16.90;;
16514;SDS011;8370;52.556;7.970;2022-12-10T14:52:42;35.40;;;16.77;;
16514;SDS011;8370;52.556;7.970;2022-12-10T14:55:16;38.67;;;17.17;;
16514;SDS011;8370;52.556;7.970;2022-12-10T14:57:45;36.47;;;16.97;;
16514;SDS011;8370;52.556;7.970;2022-12-10T15:00:17;37.57;;;15.87;;
16514;SDS011;8370;52.556;7.970;2022-12-10T15:02:44;37.13;;;16.20;;
16514;SDS011;8370;52.556;7.970;2022-12-10T15:05:18;41.27;;;16.23;;
16514;SDS011;8370;52.556;7.970;2022-12-10T15:08:05;35.73;;;17.10;;
16514;SDS011;8370;52.556;7.970;2022-12-10T15:10:40;32.07;;;15.90;;
16514;SDS011;8370;52.556;7.970;2022-12-10T15:13:18;35.77;;;16.57;;
16514;SDS011;8370;52.556;7.970;2022-12-10T15:15:50;35.27;;;16.90;;
16514;SDS011;8370;52.556;7.970;2022-12-10T15:18:18;35.80;;;15.33;;
16514;SDS011;8370;52.556;7.970;2022-12-10T15:20:53;40.70;;;18.47;;
16514;SDS011;8370;52.556;7.970;2022-12-10T15:33:44;35.23;;;15.47;;
16514;SDS011;8370;52.556;7.970;2022-12-10T15:38:55;36.80;;;15.97;;
16514;SDS011;8370;52.556;7.970;2022-12-10T15:44:14;37.87;;;16.93;;
16514;SDS011;8370;52.556;7.970;2022-12-10T15:46:59;45.83;;;17.90;;
16514;SDS011;8370;52.556;7.970;2022-12-10T15:49:33;39.57;;;18.17;;
16514;SDS011;8370;52.556;7.970;2022-12-10T15:51:59;37.77;;;17.53;;
16514;SDS011;8370;52.556;7.970;2022-12-10T15:54:43;42.80;;;18.17;;
16514;SDS011;8370;52.556;7.970;2022-12-10T15:59:41;39.20;;;17.00;;
16514;SDS011;8370;52.556;7.970;2022-12-10T16:05:00;40.93;;;19.43;;
16514;SDS011;8370;52.556;7.970;2022-12-10T16:07:26;36.93;;;17.20;;
16514;SDS011;8370;52.556;7.970;2022-12-10T16:09:52;38.77;;;17.23;;
16514;SDS011;8370;52.556;7.970;2022-12-10T16:12:17;39.97;;;18.40;;
16514;SDS011;8370;52.556;7.970;2022-12-10T16:14:47;40.20;;;17.70;;
16514;SDS011;8370;52.556;7.970;2022-12-10T16:17:18;39.53;;;17.37;;
16514;SDS011;8370;52.556;7.970;2022-12-10T16:19:44;42.03;;;18.27;;
16514;SDS011;8370;52.556;7.970;2022-12-10T16:22:10;37.90;;;17.33;;
16514;SDS011;8370;52.556;7.970;2022-12-10T16:24:36;42.93;;;18.63;;
16514;SDS011;8370;52.556;7.970;2022-12-10T16:27:04;42.93;;;20.43;;
16514;SDS011;8370;52.556;7.970;2022-12-10T16:29:36;52.07;;;21.90;;
16514;SDS011;8370;52.556;7.970;2022-12-10T16:32:01;40.43;;;18.00;;
16514;SDS011;8370;52.556;7.970;2022-12-10T16:34:27;43.17;;;19.70;;
16514;SDS011;8370;52.556;7.970;2022-12-10T16:36:52;45.13;;;20.73;;
16514;SDS011;8370;52.556;7.970;2022-12-10T16:39:17;44.97;;;19.83;;
16514;SDS011;8370;52.556;7.970;2022-12-10T16:41:43;69.23;;;34.93;;
16514;SDS011;8370;52.556;7.970;2022-12-10T16:44:08;48.47;;;21.80;;
16514;SDS011;8370;52.556;7.970;2022-12-10T16:46:34;41.80;;;17.17;;
16514;SDS011;8370;52.556;7.970;2022-12-10T16:49:01;43.37;;;18.87;;
16514;SDS011;8370;52.556;7.970;2022-12-10T16:51:28;40.97;;;18.83;;
16514;SDS011;8370;52.556;7.970;2022-12-10T16:53:55;43.77;;;18.93;;
16514;SDS011;8370;52.556;7.970;2022-12-10T16:56:20;46.67;;;20.40;;
16514;SDS011;8370;52.556;7.970;2022-12-10T16:58:46;45.73;;;19.97;;